AAL2330 KMIA-KJAX
Flight info
| Callsign | AAL2330 |
|---|---|
| Flight time | 1h 0m |
| Altitude | 30000 |
| Route | FLMGO2 STYMY ORL/N0424F290 HAINY QUBEN1 |
| Aircraft | A320/M-SDE3FGHIRWY/LB1 |
Departure
| Time | 2026-05-04 23:54 |
|---|---|
| Airport | Miami International Airport (KMIA) |
Arrival
| Time | 2026-05-05 00:54 |
|---|---|
| Airport | Jacksonville International Airport (KJAX) |
| Time | Latitude | Longitude | Altitude | Speed | Heading |
|---|---|---|---|---|---|
| 2026-05-04 23:24 | 25.79832 | -80.28165 | 14 ft | 0 kts | 181° |
| 2026-05-04 23:42 | 25.79836 | -80.28165 | 15 ft | 3 kts | 181° |
| 2026-05-04 23:42 | 25.79854 | -80.28165 | 17 ft | 3 kts | 181° |
| 2026-05-04 23:42 | 25.79871 | -80.28165 | 14 ft | 2 kts | 203° |
| 2026-05-04 23:42 | 25.79883 | -80.28154 | 14 ft | 1 kts | 268° |
| 2026-05-04 23:43 | 25.79883 | -80.28153 | 14 ft | 0 kts | 268° |
| 2026-05-04 23:45 | 25.79883 | -80.28154 | 14 ft | 0 kts | 268° |
| 2026-05-04 23:46 | 25.79882 | -80.28169 | 14 ft | 5 kts | 268° |
| 2026-05-04 23:46 | 25.79889 | -80.28221 | 14 ft | 8 kts | 278° |
| 2026-05-04 23:46 | 25.79893 | -80.28297 | 16 ft | 9 kts | 291° |
| 2026-05-04 23:46 | 25.79900 | -80.28305 | 16 ft | 0 kts | 317° |
| 2026-05-04 23:48 | 25.79911 | -80.28311 | 15 ft | 4 kts | 338° |
| 2026-05-04 23:48 | 25.79937 | -80.28315 | 15 ft | 1 kts | 354° |
| 2026-05-04 23:48 | 25.79966 | -80.28317 | 15 ft | 6 kts | 358° |
| 2026-05-04 23:48 | 25.80022 | -80.28334 | 15 ft | 11 kts | 313° |
| 2026-05-04 23:49 | 25.80031 | -80.28429 | 15 ft | 14 kts | 268° |
| 2026-05-04 23:49 | 25.80027 | -80.28549 | 17 ft | 16 kts | 267° |
| 2026-05-04 23:49 | 25.80022 | -80.28679 | 22 ft | 17 kts | 268° |
| 2026-05-04 23:49 | 25.80017 | -80.28822 | 22 ft | 20 kts | 267° |
| 2026-05-04 23:50 | 25.80008 | -80.28997 | 20 ft | 25 kts | 267° |
| 2026-05-04 23:50 | 25.80000 | -80.29199 | 22 ft | 27 kts | 267° |
| 2026-05-04 23:50 | 25.79991 | -80.29430 | 15 ft | 33 kts | 268° |
| 2026-05-04 23:50 | 25.79981 | -80.29670 | 14 ft | 25 kts | 268° |
| 2026-05-04 23:51 | 25.79971 | -80.29877 | 12 ft | 29 kts | 267° |
| 2026-05-04 23:51 | 25.79977 | -80.29963 | 11 ft | 0 kts | 288° |
| 2026-05-04 23:51 | 25.79978 | -80.29966 | 11 ft | 2 kts | 288° |
| 2026-05-04 23:52 | 25.79987 | -80.29995 | 12 ft | 6 kts | 288° |
| 2026-05-04 23:52 | 25.80002 | -80.30050 | 12 ft | 9 kts | 286° |
| 2026-05-04 23:52 | 25.80031 | -80.30118 | 15 ft | 10 kts | 321° |
| 2026-05-04 23:52 | 25.80075 | -80.30079 | 14 ft | 10 kts | 87° |
| 2026-05-04 23:53 | 25.80076 | -80.30017 | 12 ft | 11 kts | 88° |
| 2026-05-04 23:53 | 25.80086 | -80.29737 | 14 ft | 69 kts | 86° |
| 2026-05-04 23:53 | 25.80118 | -80.28991 | 21 ft | 122 kts | 87° |
| 2026-05-04 23:53 | 25.80163 | -80.27888 | 100 ft | 155 kts | 86° |
| 2026-05-04 23:54 | 25.80239 | -80.26726 | 715 ft | 152 kts | 83° |
| 2026-05-04 23:54 | 25.80306 | -80.25550 | 1288 ft | 153 kts | 84° |
| 2026-05-04 23:54 | 25.80356 | -80.24367 | 1812 ft | 157 kts | 85° |
| 2026-05-04 23:54 | 25.80407 | -80.23072 | 2070 ft | 179 kts | 86° |
| 2026-05-04 23:55 | 25.80465 | -80.21603 | 2322 ft | 203 kts | 86° |
| 2026-05-04 23:55 | 25.80526 | -80.19943 | 2617 ft | 227 kts | 86° |
| 2026-05-04 23:55 | 25.81381 | -80.16390 | 3762 ft | 256 kts | 45° |
| 2026-05-04 23:56 | 25.82936 | -80.15444 | 4464 ft | 266 kts | 13° |
| 2026-05-04 23:56 | 25.84792 | -80.15217 | 5260 ft | 271 kts | 359° |
| 2026-05-04 23:56 | 25.86069 | -80.15244 | 5821 ft | 273 kts | 355° |
| 2026-05-04 23:56 | 25.88615 | -80.15417 | 6733 ft | 280 kts | 351° |
| 2026-05-04 23:57 | 25.89893 | -80.15727 | 6892 ft | 278 kts | 340° |
| 2026-05-04 23:57 | 25.91693 | -80.16497 | 6991 ft | 278 kts | 337° |
| 2026-05-04 23:57 | 25.93528 | -80.17217 | 7023 ft | 281 kts | 340° |
| 2026-05-04 23:57 | 25.95390 | -80.17880 | 7018 ft | 281 kts | 341° |
| 2026-05-04 23:58 | 25.97261 | -80.18525 | 7018 ft | 281 kts | 338° |
| 2026-05-04 23:58 | 25.99022 | -80.19435 | 7018 ft | 279 kts | 326° |
| 2026-05-04 23:58 | 26.00562 | -80.20726 | 7020 ft | 277 kts | 315° |
| 2026-05-04 23:58 | 26.01997 | -80.22156 | 7010 ft | 277 kts | 316° |
| 2026-05-04 23:59 | 26.03447 | -80.23597 | 7589 ft | 280 kts | 316° |
| 2026-05-04 23:59 | 26.04902 | -80.25038 | 8433 ft | 282 kts | 315° |
| 2026-05-04 23:59 | 26.06372 | -80.26494 | 9237 ft | 284 kts | 315° |
| 2026-05-04 23:59 | 26.07855 | -80.27962 | 10022 ft | 287 kts | 314° |
| 2026-05-05 00:00 | 26.09394 | -80.29492 | 10306 ft | 308 kts | 314° |
| 2026-05-05 00:00 | 26.10470 | -80.30565 | 10549 ft | 317 kts | 314° |
| 2026-05-05 00:00 | 26.12673 | -80.32758 | 11361 ft | 324 kts | 314° |
| 2026-05-05 00:00 | 26.14383 | -80.34455 | 12044 ft | 326 kts | 314° |
| 2026-05-05 00:01 | 26.16060 | -80.36119 | 12712 ft | 329 kts | 314° |
| 2026-05-05 00:01 | 26.17795 | -80.37842 | 13392 ft | 331 kts | 314° |
| 2026-05-05 00:01 | 26.19495 | -80.39532 | 14024 ft | 333 kts | 314° |
| 2026-05-05 00:01 | 26.21251 | -80.41277 | 14625 ft | 335 kts | 314° |
| 2026-05-05 00:02 | 26.23099 | -80.42884 | 15114 ft | 344 kts | 323° |
| 2026-05-05 00:02 | 26.25252 | -80.44132 | 15622 ft | 352 kts | 330° |
| 2026-05-05 00:02 | 26.27473 | -80.45313 | 16150 ft | 355 kts | 330° |
| 2026-05-05 00:02 | 26.29687 | -80.46487 | 16719 ft | 357 kts | 329° |
| 2026-05-05 00:03 | 26.31935 | -80.47676 | 17296 ft | 359 kts | 329° |
| 2026-05-05 00:03 | 26.34202 | -80.48874 | 17876 ft | 362 kts | 329° |
| 2026-05-05 00:03 | 26.36483 | -80.50086 | 18427 ft | 364 kts | 329° |
| 2026-05-05 00:03 | 26.38781 | -80.51309 | 18932 ft | 366 kts | 329° |
| 2026-05-05 00:04 | 26.41085 | -80.52541 | 19440 ft | 368 kts | 329° |
| 2026-05-05 00:04 | 26.43404 | -80.53781 | 19964 ft | 371 kts | 329° |
| 2026-05-05 00:04 | 26.45735 | -80.55025 | 20496 ft | 373 kts | 328° |
| 2026-05-05 00:04 | 26.48092 | -80.56255 | 21008 ft | 377 kts | 332° |
| 2026-05-05 00:05 | 26.50622 | -80.57161 | 21500 ft | 384 kts | 338° |
| 2026-05-05 00:05 | 26.53206 | -80.57976 | 22006 ft | 387 kts | 338° |
| 2026-05-05 00:05 | 26.55804 | -80.58797 | 22520 ft | 389 kts | 338° |
| 2026-05-05 00:05 | 26.58419 | -80.59628 | 23019 ft | 392 kts | 338° |
| 2026-05-05 00:06 | 26.61052 | -80.60466 | 23503 ft | 395 kts | 338° |
| 2026-05-05 00:06 | 26.63674 | -80.61300 | 23910 ft | 397 kts | 338° |
| 2026-05-05 00:06 | 26.66370 | -80.62157 | 24320 ft | 399 kts | 338° |
| 2026-05-05 00:06 | 26.69012 | -80.63001 | 24723 ft | 401 kts | 338° |
| 2026-05-05 00:07 | 26.71737 | -80.63870 | 25136 ft | 403 kts | 337° |
| 2026-05-05 00:07 | 26.74440 | -80.64730 | 25528 ft | 405 kts | 337° |
| 2026-05-05 00:07 | 26.77156 | -80.65593 | 25921 ft | 407 kts | 337° |
| 2026-05-05 00:07 | 26.79883 | -80.66460 | 26306 ft | 408 kts | 337° |
| 2026-05-05 00:08 | 26.82623 | -80.67332 | 26671 ft | 410 kts | 337° |
| 2026-05-05 00:08 | 26.85376 | -80.68209 | 27054 ft | 412 kts | 337° |
| 2026-05-05 00:08 | 26.88136 | -80.69090 | 27452 ft | 414 kts | 337° |
| 2026-05-05 00:08 | 26.90920 | -80.69980 | 27805 ft | 416 kts | 337° |
| 2026-05-05 00:09 | 26.93658 | -80.70906 | 28159 ft | 417 kts | 335° |
| 2026-05-05 00:09 | 26.96415 | -80.71920 | 28518 ft | 418 kts | 334° |
| 2026-05-05 00:09 | 26.99167 | -80.72983 | 28860 ft | 419 kts | 334° |
| 2026-05-05 00:09 | 27.01923 | -80.74070 | 29221 ft | 421 kts | 333° |
| 2026-05-05 00:10 | 27.04700 | -80.75163 | 29570 ft | 423 kts | 334° |
| 2026-05-05 00:10 | 27.07487 | -80.76249 | 29914 ft | 425 kts | 334° |
| 2026-05-05 00:10 | 27.10294 | -80.77325 | 30220 ft | 427 kts | 334° |
| 2026-05-05 00:10 | 27.13109 | -80.78390 | 30550 ft | 428 kts | 334° |
| 2026-05-05 00:11 | 27.15935 | -80.79450 | 30905 ft | 427 kts | 334° |
| 2026-05-05 00:11 | 27.18749 | -80.80504 | 31030 ft | 422 kts | 334° |
| 2026-05-05 00:11 | 27.21500 | -80.81533 | 31035 ft | 413 kts | 334° |
| 2026-05-05 00:12 | 27.26914 | -80.83576 | 31041 ft | 408 kts | 334° |
| 2026-05-05 00:12 | 27.32282 | -80.85630 | 31029 ft | 408 kts | 334° |
| 2026-05-05 00:13 | 27.37586 | -80.87756 | 31025 ft | 406 kts | 333° |
| 2026-05-05 00:13 | 27.42921 | -80.89984 | 31046 ft | 406 kts | 332° |
| 2026-05-05 00:14 | 27.48185 | -80.92179 | 31060 ft | 406 kts | 333° |
| 2026-05-05 00:14 | 27.53475 | -80.94367 | 31065 ft | 404 kts | 333° |
| 2026-05-05 00:15 | 27.58755 | -80.96537 | 31070 ft | 403 kts | 333° |
| 2026-05-05 00:15 | 27.64027 | -80.98703 | 31069 ft | 403 kts | 333° |
| 2026-05-05 00:16 | 27.69293 | -81.00878 | 31068 ft | 402 kts | 333° |
| 2026-05-05 00:16 | 27.74551 | -81.03060 | 31066 ft | 402 kts | 333° |
| 2026-05-05 00:17 | 27.79798 | -81.05228 | 31087 ft | 402 kts | 333° |
| 2026-05-05 00:17 | 27.85045 | -81.07406 | 31072 ft | 402 kts | 333° |
| 2026-05-05 00:18 | 27.90295 | -81.09596 | 31073 ft | 402 kts | 333° |
| 2026-05-05 00:18 | 27.95512 | -81.11766 | 31078 ft | 402 kts | 333° |
| 2026-05-05 00:19 | 28.00758 | -81.13946 | 31068 ft | 402 kts | 333° |
| 2026-05-05 00:19 | 28.06022 | -81.16084 | 31074 ft | 403 kts | 334° |
| 2026-05-05 00:20 | 28.11368 | -81.18019 | 31093 ft | 404 kts | 336° |
| 2026-05-05 00:20 | 28.16745 | -81.19892 | 31108 ft | 404 kts | 336° |
| 2026-05-05 00:21 | 28.22105 | -81.21797 | 31102 ft | 404 kts | 335° |
| 2026-05-05 00:21 | 28.27464 | -81.23737 | 31094 ft | 404 kts | 335° |
| 2026-05-05 00:22 | 28.32809 | -81.25688 | 31091 ft | 404 kts | 335° |
| 2026-05-05 00:22 | 28.38155 | -81.27640 | 31088 ft | 403 kts | 335° |
| 2026-05-05 00:23 | 28.43496 | -81.29586 | 31112 ft | 403 kts | 335° |
| 2026-05-05 00:23 | 28.48831 | -81.31516 | 31104 ft | 402 kts | 335° |
| 2026-05-05 00:24 | 28.54206 | -81.33370 | 31099 ft | 414 kts | 341° |
| 2026-05-05 00:24 | 28.57131 | -81.33774 | 31082 ft | 431 kts | 348° |
| 2026-05-05 00:24 | 28.60165 | -81.34041 | 31074 ft | 441 kts | 348° |
| 2026-05-05 00:25 | 28.66388 | -81.34573 | 31070 ft | 455 kts | 348° |
| 2026-05-05 00:25 | 28.72744 | -81.35114 | 31077 ft | 465 kts | 348° |
| 2026-05-05 00:26 | 28.79253 | -81.35673 | 31083 ft | 471 kts | 348° |
| 2026-05-05 00:26 | 28.85822 | -81.36240 | 31066 ft | 468 kts | 348° |
| 2026-05-05 00:27 | 28.92174 | -81.36774 | 31090 ft | 450 kts | 348° |
| 2026-05-05 00:27 | 28.95257 | -81.37036 | 31093 ft | 439 kts | 348° |
| 2026-05-05 00:27 | 28.98284 | -81.37296 | 31118 ft | 434 kts | 348° |
| 2026-05-05 00:28 | 29.04221 | -81.37870 | 31094 ft | 413 kts | 346° |
| 2026-05-05 00:28 | 29.06974 | -81.38167 | 30776 ft | 395 kts | 346° |
| 2026-05-05 00:28 | 29.09678 | -81.38474 | 30186 ft | 387 kts | 345° |
| 2026-05-05 00:28 | 29.12341 | -81.38787 | 29399 ft | 382 kts | 345° |
| 2026-05-05 00:29 | 29.14970 | -81.39096 | 28662 ft | 378 kts | 346° |
| 2026-05-05 00:29 | 29.17578 | -81.39396 | 27949 ft | 374 kts | 346° |
| 2026-05-05 00:29 | 29.20155 | -81.39686 | 27260 ft | 370 kts | 346° |
| 2026-05-05 00:29 | 29.22701 | -81.39967 | 26577 ft | 367 kts | 347° |
| 2026-05-05 00:30 | 29.25233 | -81.40246 | 25899 ft | 363 kts | 347° |
| 2026-05-05 00:30 | 29.27730 | -81.40522 | 25242 ft | 360 kts | 347° |
| 2026-05-05 00:30 | 29.30217 | -81.40797 | 24568 ft | 357 kts | 347° |
| 2026-05-05 00:30 | 29.32676 | -81.41070 | 23909 ft | 353 kts | 348° |
| 2026-05-05 00:31 | 29.35119 | -81.41341 | 23185 ft | 350 kts | 348° |
| 2026-05-05 00:31 | 29.37530 | -81.41606 | 22436 ft | 347 kts | 348° |
| 2026-05-05 00:31 | 29.39927 | -81.41870 | 21700 ft | 345 kts | 348° |
| 2026-05-05 00:31 | 29.42278 | -81.42132 | 21001 ft | 342 kts | 348° |
| 2026-05-05 00:32 | 29.44644 | -81.42398 | 20296 ft | 340 kts | 349° |
| 2026-05-05 00:32 | 29.46989 | -81.42659 | 19618 ft | 337 kts | 349° |
| 2026-05-05 00:32 | 29.49320 | -81.42916 | 18957 ft | 335 kts | 349° |
| 2026-05-05 00:32 | 29.51636 | -81.43172 | 18302 ft | 333 kts | 349° |
| 2026-05-05 00:33 | 29.53939 | -81.43424 | 17565 ft | 331 kts | 350° |
| 2026-05-05 00:33 | 29.56212 | -81.43719 | 16897 ft | 326 kts | 345° |
| 2026-05-05 00:33 | 29.58349 | -81.44481 | 16361 ft | 320 kts | 332° |
| 2026-05-05 00:33 | 29.60244 | -81.45760 | 15989 ft | 314 kts | 320° |
| 2026-05-05 00:34 | 29.61853 | -81.47428 | 15660 ft | 309 kts | 312° |
| 2026-05-05 00:34 | 29.63379 | -81.49184 | 15420 ft | 311 kts | 313° |
| 2026-05-05 00:34 | 29.64913 | -81.50943 | 15176 ft | 311 kts | 313° |
| 2026-05-05 00:34 | 29.66442 | -81.52698 | 14930 ft | 311 kts | 313° |
| 2026-05-05 00:35 | 29.67972 | -81.54457 | 14706 ft | 311 kts | 313° |
| 2026-05-05 00:35 | 29.69498 | -81.56215 | 14476 ft | 310 kts | 313° |
| 2026-05-05 00:35 | 29.71019 | -81.57974 | 14237 ft | 310 kts | 313° |
| 2026-05-05 00:35 | 29.72536 | -81.59729 | 14006 ft | 309 kts | 313° |
| 2026-05-05 00:36 | 29.74041 | -81.61466 | 13714 ft | 305 kts | 313° |
| 2026-05-05 00:36 | 29.75574 | -81.63143 | 13333 ft | 304 kts | 320° |
| 2026-05-05 00:36 | 29.76743 | -81.64036 | 13085 ft | 305 kts | 330° |
| 2026-05-05 00:37 | 29.81074 | -81.65222 | 13002 ft | 312 kts | 353° |
| 2026-05-05 00:37 | 29.83242 | -81.65417 | 13010 ft | 313 kts | 353° |
| 2026-05-05 00:37 | 29.85411 | -81.65605 | 13009 ft | 313 kts | 354° |
| 2026-05-05 00:37 | 29.87579 | -81.65820 | 12998 ft | 313 kts | 353° |
| 2026-05-05 00:38 | 29.89747 | -81.66030 | 12997 ft | 313 kts | 353° |
| 2026-05-05 00:38 | 29.91918 | -81.66247 | 12994 ft | 313 kts | 353° |
| 2026-05-05 00:38 | 29.94056 | -81.66454 | 12997 ft | 312 kts | 354° |
| 2026-05-05 00:38 | 29.96218 | -81.66668 | 12875 ft | 311 kts | 353° |
| 2026-05-05 00:39 | 29.98365 | -81.66879 | 12506 ft | 309 kts | 353° |
| 2026-05-05 00:39 | 30.00501 | -81.67088 | 12153 ft | 307 kts | 353° |
| 2026-05-05 00:39 | 30.02640 | -81.67352 | 11809 ft | 305 kts | 351° |
| 2026-05-05 00:39 | 30.04739 | -81.67638 | 11471 ft | 303 kts | 352° |
| 2026-05-05 00:40 | 30.06799 | -81.67936 | 11135 ft | 301 kts | 351° |
| 2026-05-05 00:40 | 30.08868 | -81.68257 | 10810 ft | 299 kts | 351° |
| 2026-05-05 00:40 | 30.10927 | -81.68587 | 10477 ft | 297 kts | 350° |
| 2026-05-05 00:40 | 30.12957 | -81.68914 | 10242 ft | 292 kts | 351° |
| 2026-05-05 00:41 | 30.14962 | -81.69237 | 9950 ft | 290 kts | 351° |
| 2026-05-05 00:41 | 30.16950 | -81.69574 | 9598 ft | 288 kts | 349° |
| 2026-05-05 00:41 | 30.18936 | -81.69898 | 9254 ft | 287 kts | 349° |
| 2026-05-05 00:41 | 30.20865 | -81.70418 | 8918 ft | 284 kts | 343° |
| 2026-05-05 00:42 | 30.22765 | -81.71048 | 8577 ft | 283 kts | 341° |
| 2026-05-05 00:42 | 30.24643 | -81.71696 | 8261 ft | 281 kts | 341° |
| 2026-05-05 00:42 | 30.26514 | -81.72331 | 7941 ft | 280 kts | 341° |
| 2026-05-05 00:42 | 30.28377 | -81.72952 | 7381 ft | 278 kts | 341° |
| 2026-05-05 00:43 | 30.30235 | -81.73597 | 6726 ft | 279 kts | 340° |
| 2026-05-05 00:43 | 30.32090 | -81.74285 | 5995 ft | 281 kts | 339° |
| 2026-05-05 00:43 | 30.33928 | -81.75002 | 5254 ft | 283 kts | 339° |
| 2026-05-05 00:43 | 30.35797 | -81.75757 | 4499 ft | 286 kts | 338° |
| 2026-05-05 00:44 | 30.37679 | -81.76529 | 3709 ft | 288 kts | 340° |
| 2026-05-05 00:44 | 30.39559 | -81.77336 | 3167 ft | 284 kts | 340° |
| 2026-05-05 00:44 | 30.41332 | -81.78144 | 3018 ft | 263 kts | 339° |
| 2026-05-05 00:44 | 30.42953 | -81.78894 | 3001 ft | 238 kts | 339° |
| 2026-05-05 00:45 | 30.44444 | -81.79590 | 3005 ft | 223 kts | 339° |
| 2026-05-05 00:45 | 30.45874 | -81.80255 | 3019 ft | 223 kts | 339° |
| 2026-05-05 00:45 | 30.47316 | -81.80923 | 3012 ft | 222 kts | 339° |
| 2026-05-05 00:45 | 30.48751 | -81.81588 | 3010 ft | 222 kts | 339° |
| 2026-05-05 00:46 | 30.50193 | -81.82263 | 3013 ft | 223 kts | 339° |
| 2026-05-05 00:46 | 30.51630 | -81.82943 | 3010 ft | 223 kts | 339° |
| 2026-05-05 00:46 | 30.53046 | -81.83673 | 3003 ft | 223 kts | 327° |
| 2026-05-05 00:46 | 30.54051 | -81.84986 | 3011 ft | 222 kts | 291° |
| 2026-05-05 00:47 | 30.54258 | -81.86737 | 3011 ft | 217 kts | 260° |
| 2026-05-05 00:47 | 30.53977 | -81.88465 | 2870 ft | 219 kts | 254° |
| 2026-05-05 00:47 | 30.53624 | -81.90145 | 2700 ft | 217 kts | 253° |
| 2026-05-05 00:47 | 30.53201 | -81.91821 | 2647 ft | 215 kts | 239° |
| 2026-05-05 00:48 | 30.52269 | -81.93130 | 2656 ft | 211 kts | 214° |
| 2026-05-05 00:48 | 30.50979 | -81.93702 | 2672 ft | 190 kts | 176° |
| 2026-05-05 00:48 | 30.49693 | -81.93518 | 2681 ft | 184 kts | 166° |
| 2026-05-05 00:48 | 30.48473 | -81.93136 | 2666 ft | 180 kts | 150° |
| 2026-05-05 00:49 | 30.47480 | -81.92278 | 2669 ft | 178 kts | 137° |
| 2026-05-05 00:49 | 30.46569 | -81.91297 | 2672 ft | 178 kts | 135° |
| 2026-05-05 00:49 | 30.45682 | -81.90305 | 2665 ft | 177 kts | 135° |
| 2026-05-05 00:49 | 30.44971 | -81.89155 | 2667 ft | 176 kts | 117° |
| 2026-05-05 00:50 | 30.44571 | -81.87817 | 2664 ft | 177 kts | 100° |
| 2026-05-05 00:50 | 30.44612 | -81.86386 | 2664 ft | 180 kts | 79° |
| 2026-05-05 00:50 | 30.45005 | -81.85036 | 2622 ft | 171 kts | 74° |
| 2026-05-05 00:50 | 30.45392 | -81.83783 | 2473 ft | 160 kts | 74° |
| 2026-05-05 00:51 | 30.45756 | -81.82599 | 2289 ft | 152 kts | 75° |
| 2026-05-05 00:51 | 30.46102 | -81.81475 | 2102 ft | 145 kts | 75° |
| 2026-05-05 00:51 | 30.46433 | -81.80399 | 1918 ft | 139 kts | 75° |
| 2026-05-05 00:51 | 30.46751 | -81.79360 | 1742 ft | 137 kts | 75° |
| 2026-05-05 00:52 | 30.47069 | -81.78324 | 1549 ft | 137 kts | 74° |
| 2026-05-05 00:52 | 30.47389 | -81.77279 | 1375 ft | 138 kts | 74° |
| 2026-05-05 00:52 | 30.47710 | -81.76236 | 1194 ft | 137 kts | 75° |
| 2026-05-05 00:52 | 30.48027 | -81.75202 | 1018 ft | 137 kts | 75° |
| 2026-05-05 00:53 | 30.48346 | -81.74162 | 834 ft | 137 kts | 73° |
| 2026-05-05 00:53 | 30.48679 | -81.73110 | 607 ft | 140 kts | 73° |
| 2026-05-05 00:53 | 30.49011 | -81.72057 | 429 ft | 138 kts | 75° |
| 2026-05-05 00:53 | 30.49317 | -81.70999 | 243 ft | 138 kts | 72° |
| 2026-05-05 00:54 | 30.49640 | -81.69952 | 89 ft | 137 kts | 73° |
| 2026-05-05 00:54 | 30.49930 | -81.68984 | 38 ft | 106 kts | 70° |
| 2026-05-05 00:54 | 30.50124 | -81.68365 | 39 ft | 57 kts | 70° |
| 2026-05-05 00:54 | 30.50201 | -81.68122 | 37 ft | 8 kts | 71° |
| 2026-05-05 00:55 | 30.50167 | -81.68061 | 37 ft | 14 kts | 152° |
| 2026-05-05 00:55 | 30.50109 | -81.68009 | 36 ft | 0 kts | 148° |
| 2026-05-05 00:56 | 30.50106 | -81.68007 | 36 ft | 2 kts | 150° |
| 2026-05-05 00:56 | 30.50072 | -81.67995 | 34 ft | 7 kts | 171° |
| 2026-05-05 00:56 | 30.50043 | -81.68050 | 36 ft | 11 kts | 249° |
| 2026-05-05 00:56 | 30.50011 | -81.68154 | 34 ft | 17 kts | 250° |
| 2026-05-05 00:57 | 30.49966 | -81.68298 | 34 ft | 20 kts | 250° |
| 2026-05-05 00:57 | 30.49922 | -81.68426 | 34 ft | 14 kts | 230° |
| 2026-05-05 00:57 | 30.49820 | -81.68459 | 35 ft | 17 kts | 192° |
| 2026-05-05 00:57 | 30.49696 | -81.68486 | 35 ft | 19 kts | 190° |
| 2026-05-05 00:58 | 30.49553 | -81.68517 | 35 ft | 22 kts | 191° |
| 2026-05-05 00:58 | 30.49477 | -81.68587 | 35 ft | 13 kts | 272° |
| 2026-05-05 00:58 | 30.49441 | -81.68689 | 34 ft | 15 kts | 226° |
| 2026-05-05 00:58 | 30.49347 | -81.68683 | 35 ft | 16 kts | 126° |
| 2026-05-05 00:59 | 30.49331 | -81.68640 | 35 ft | 2 kts | 107° |
| 2026-05-05 00:59 | 30.49325 | -81.68613 | 35 ft | 2 kts | 104° |